sensor_id;sensor_type;location;lat;lon;timestamp;temperature;humidity
20370;DHT22;10344;47.592;9.600;2022-12-08T00:01:37;3.30;99.90
20370;DHT22;10344;47.592;9.600;2022-12-08T00:04:04;3.30;99.90
20370;DHT22;10344;47.592;9.600;2022-12-08T00:06:38;3.30;99.90
20370;DHT22;10344;47.592;9.600;2022-12-08T00:14:24;3.30;99.90
20370;DHT22;10344;47.592;9.600;2022-12-08T00:16:52;3.30;99.90
20370;DHT22;10344;47.592;9.600;2022-12-08T00:19:19;3.30;99.90
20370;DHT22;10344;47.592;9.600;2022-12-08T00:21:44;3.30;99.90
20370;DHT22;10344;47.592;9.600;2022-12-08T00:24:10;3.30;99.90
20370;DHT22;10344;47.592;9.600;2022-12-08T00:26:36;3.30;99.90
20370;DHT22;10344;47.592;9.600;2022-12-08T00:29:03;3.30;99.90
20370;DHT22;10344;47.592;9.600;2022-12-08T00:31:28;3.30;99.90
20370;DHT22;10344;47.592;9.600;2022-12-08T00:33:56;3.30;99.90
20370;DHT22;10344;47.592;9.600;2022-12-08T00:36:25;3.40;99.90
20370;DHT22;10344;47.592;9.600;2022-12-08T00:38:50;3.30;99.90
20370;DHT22;10344;47.592;9.600;2022-12-08T00:41:19;3.30;99.90
20370;DHT22;10344;47.592;9.600;2022-12-08T00:44:06;3.30;99.90
20370;DHT22;10344;47.592;9.600;2022-12-08T00:46:32;3.30;99.90
20370;DHT22;10344;47.592;9.600;2022-12-08T00:48:58;3.30;99.90
20370;DHT22;10344;47.592;9.600;2022-12-08T00:51:26;3.30;99.90
20370;DHT22;10344;47.592;9.600;2022-12-08T00:53:51;3.30;99.90
20370;DHT22;10344;47.592;9.600;2022-12-08T00:56:19;3.30;99.90
20370;DHT22;10344;47.592;9.600;2022-12-08T00:58:44;3.30;99.90
20370;DHT22;10344;47.592;9.600;2022-12-08T01:01:11;3.30;99.90
20370;DHT22;10344;47.592;9.600;2022-12-08T01:03:37;3.30;99.90
20370;DHT22;10344;47.592;9.600;2022-12-08T01:06:03;3.30;99.90
20370;DHT22;10344;47.592;9.600;2022-12-08T01:08:29;3.30;99.90
20370;DHT22;10344;47.592;9.600;2022-12-08T01:10:55;3.30;99.90
20370;DHT22;10344;47.592;9.600;2022-12-08T01:13:21;3.30;99.90
20370;DHT22;10344;47.592;9.600;2022-12-08T01:15:46;3.30;99.90
20370;DHT22;10344;47.592;9.600;2022-12-08T01:18:12;3.40;99.90
20370;DHT22;10344;47.592;9.600;2022-12-08T01:20:38;3.30;99.90
20370;DHT22;10344;47.592;9.600;2022-12-08T01:23:06;3.30;99.90
20370;DHT22;10344;47.592;9.600;2022-12-08T01:25:34;3.30;99.90
20370;DHT22;10344;47.592;9.600;2022-12-08T01:27:59;3.30;99.90
20370;DHT22;10344;47.592;9.600;2022-12-08T01:30:25;3.30;99.90
20370;DHT22;10344;47.592;9.600;2022-12-08T01:32:51;3.20;99.90
20370;DHT22;10344;47.592;9.600;2022-12-08T01:35:16;3.20;99.90
20370;DHT22;10344;47.592;9.600;2022-12-08T01:37:42;3.30;99.90
20370;DHT22;10344;47.592;9.600;2022-12-08T01:40:08;3.30;99.90
20370;DHT22;10344;47.592;9.600;2022-12-08T01:42:33;3.30;99.90
20370;DHT22;10344;47.592;9.600;2022-12-08T01:45:34;3.20;99.90
20370;DHT22;10344;47.592;9.600;2022-12-08T01:48:05;3.20;99.90
20370;DHT22;10344;47.592;9.600;2022-12-08T01:50:32;3.20;99.90
20370;DHT22;10344;47.592;9.600;2022-12-08T01:53:09;3.20;99.90
20370;DHT22;10344;47.592;9.600;2022-12-08T01:56:16;3.20;99.90
20370;DHT22;10344;47.592;9.600;2022-12-08T01:58:47;3.20;99.90
20370;DHT22;10344;47.592;9.600;2022-12-08T02:01:14;3.20;99.90
20370;DHT22;10344;47.592;9.600;2022-12-08T02:03:50;3.20;99.90
20370;DHT22;10344;47.592;9.600;2022-12-08T02:06:20;3.10;99.90
20370;DHT22;10344;47.592;9.600;2022-12-08T02:08:46;3.10;99.90
20370;DHT22;10344;47.592;9.600;2022-12-08T02:11:15;3.10;99.90
20370;DHT22;10344;47.592;9.600;2022-12-08T02:13:43;3.00;99.90
20370;DHT22;10344;47.592;9.600;2022-12-08T02:17:08;3.10;99.90
20370;DHT22;10344;47.592;9.600;2022-12-08T02:24:44;3.00;99.90
20370;DHT22;10344;47.592;9.600;2022-12-08T02:36:24;2.90;99.90
20370;DHT22;10344;47.592;9.600;2022-12-08T02:46:43;2.90;99.90
20370;DHT22;10344;47.592;9.600;2022-12-08T02:49:10;2.90;99.90
20370;DHT22;10344;47.592;9.600;2022-12-08T02:51:39;2.90;99.90
20370;DHT22;10344;47.592;9.600;2022-12-08T02:54:05;2.80;99.90
20370;DHT22;10344;47.592;9.600;2022-12-08T02:57:01;2.80;99.90
20370;DHT22;10344;47.592;9.600;2022-12-08T03:08:02;2.80;99.90
20370;DHT22;10344;47.592;9.600;2022-12-08T03:10:36;2.70;99.90
20370;DHT22;10344;47.592;9.600;2022-12-08T03:13:13;2.70;99.90
20370;DHT22;10344;47.592;9.600;2022-12-08T03:15:44;2.60;99.90
20370;DHT22;10344;47.592;9.600;2022-12-08T03:18:14;2.60;99.90
20370;DHT22;10344;47.592;9.600;2022-12-08T03:20:44;2.60;99.90
20370;DHT22;10344;47.592;9.600;2022-12-08T03:23:12;2.50;99.90
20370;DHT22;10344;47.592;9.600;2022-12-08T03:25:43;2.50;99.90
20370;DHT22;10344;47.592;9.600;2022-12-08T03:28:11;2.50;99.90
20370;DHT22;10344;47.592;9.600;2022-12-08T03:30:39;2.50;99.90
20370;DHT22;10344;47.592;9.600;2022-12-08T03:33:13;2.50;99.90
20370;DHT22;10344;47.592;9.600;2022-12-08T03:35:40;2.50;99.90
20370;DHT22;10344;47.592;9.600;2022-12-08T03:38:12;2.50;99.90
20370;DHT22;10344;47.592;9.600;2022-12-08T03:40:38;2.50;99.90
20370;DHT22;10344;47.592;9.600;2022-12-08T03:43:04;2.40;99.90
20370;DHT22;10344;47.592;9.600;2022-12-08T03:45:30;2.40;99.90
20370;DHT22;10344;47.592;9.600;2022-12-08T03:47:58;2.50;99.90
20370;DHT22;10344;47.592;9.600;2022-12-08T03:50:24;2.50;99.90
20370;DHT22;10344;47.592;9.600;2022-12-08T03:52:52;2.50;99.90
20370;DHT22;10344;47.592;9.600;2022-12-08T03:55:18;2.50;99.90
20370;DHT22;10344;47.592;9.600;2022-12-08T03:57:47;2.50;99.90
20370;DHT22;10344;47.592;9.600;2022-12-08T04:00:14;2.50;99.90
20370;DHT22;10344;47.592;9.600;2022-12-08T04:02:40;2.50;99.90
20370;DHT22;10344;47.592;9.600;2022-12-08T04:05:06;2.60;99.90
20370;DHT22;10344;47.592;9.600;2022-12-08T04:07:34;2.60;99.90
20370;DHT22;10344;47.592;9.600;2022-12-08T04:09:59;2.50;99.90
20370;DHT22;10344;47.592;9.600;2022-12-08T04:12:25;2.50;99.90
20370;DHT22;10344;47.592;9.600;2022-12-08T04:14:50;2.50;99.90
20370;DHT22;10344;47.592;9.600;2022-12-08T04:17:16;2.50;99.90
20370;DHT22;10344;47.592;9.600;2022-12-08T04:19:41;2.50;99.90
20370;DHT22;10344;47.592;9.600;2022-12-08T04:22:07;2.50;99.90
20370;DHT22;10344;47.592;9.600;2022-12-08T04:24:35;2.50;99.90
20370;DHT22;10344;47.592;9.600;2022-12-08T04:27:00;2.50;99.90
20370;DHT22;10344;47.592;9.600;2022-12-08T04:29:26;2.50;99.90
20370;DHT22;10344;47.592;9.600;2022-12-08T04:31:51;2.50;99.90
20370;DHT22;10344;47.592;9.600;2022-12-08T04:34:17;2.50;99.90
20370;DHT22;10344;47.592;9.600;2022-12-08T04:36:44;2.40;99.90
20370;DHT22;10344;47.592;9.600;2022-12-08T04:39:10;2.40;99.90
20370;DHT22;10344;47.592;9.600;2022-12-08T04:41:36;2.40;99.90
20370;DHT22;10344;47.592;9.600;2022-12-08T04:44:01;2.40;99.90
20370;DHT22;10344;47.592;9.600;2022-12-08T04:46:27;2.40;99.90
20370;DHT22;10344;47.592;9.600;2022-12-08T04:48:52;2.40;99.90
20370;DHT22;10344;47.592;9.600;2022-12-08T04:51:19;2.40;99.90
20370;DHT22;10344;47.592;9.600;2022-12-08T04:53:45;2.40;99.90
20370;DHT22;10344;47.592;9.600;2022-12-08T04:56:16;2.40;99.90
20370;DHT22;10344;47.592;9.600;2022-12-08T04:58:42;2.30;99.90
20370;DHT22;10344;47.592;9.600;2022-12-08T05:01:08;2.30;99.90
20370;DHT22;10344;47.592;9.600;2022-12-08T05:03:33;2.30;99.90
20370;DHT22;10344;47.592;9.600;2022-12-08T05:05:59;2.30;99.90
20370;DHT22;10344;47.592;9.600;2022-12-08T05:08:25;2.30;99.90
20370;DHT22;10344;47.592;9.600;2022-12-08T05:10:51;2.30;99.90
20370;DHT22;10344;47.592;9.600;2022-12-08T05:13:17;2.40;99.90
20370;DHT22;10344;47.592;9.600;2022-12-08T05:15:42;2.30;99.90
20370;DHT22;10344;47.592;9.600;2022-12-08T05:18:08;2.40;99.90
20370;DHT22;10344;47.592;9.600;2022-12-08T05:20:36;2.30;99.90
20370;DHT22;10344;47.592;9.600;2022-12-08T05:23:01;2.40;99.90
20370;DHT22;10344;47.592;9.600;2022-12-08T05:25:27;2.40;99.90
20370;DHT22;10344;47.592;9.600;2022-12-08T05:27:53;2.40;99.90
20370;DHT22;10344;47.592;9.600;2022-12-08T05:30:18;2.40;99.90
20370;DHT22;10344;47.592;9.600;2022-12-08T05:32:44;2.40;99.90
20370;DHT22;10344;47.592;9.600;2022-12-08T05:35:09;2.50;99.90
20370;DHT22;10344;47.592;9.600;2022-12-08T05:37:37;2.50;99.90
20370;DHT22;10344;47.592;9.600;2022-12-08T05:40:03;2.60;99.90
20370;DHT22;10344;47.592;9.600;2022-12-08T05:42:29;2.60;99.90
20370;DHT22;10344;47.592;9.600;2022-12-08T05:44:55;2.60;99.90
20370;DHT22;10344;47.592;9.600;2022-12-08T05:47:20;2.70;99.90
20370;DHT22;10344;47.592;9.600;2022-12-08T05:49:46;2.60;99.90
20370;DHT22;10344;47.592;9.600;2022-12-08T05:52:11;2.60;99.90
20370;DHT22;10344;47.592;9.600;2022-12-08T05:54:37;2.60;99.90
20370;DHT22;10344;47.592;9.600;2022-12-08T05:57:03;2.60;99.90
20370;DHT22;10344;47.592;9.600;2022-12-08T05:59:28;2.70;99.90
20370;DHT22;10344;47.592;9.600;2022-12-08T06:01:54;2.60;99.90
20370;DHT22;10344;47.592;9.600;2022-12-08T06:04:19;2.70;99.90
20370;DHT22;10344;47.592;9.600;2022-12-08T06:06:45;2.60;99.90
20370;DHT22;10344;47.592;9.600;2022-12-08T06:09:10;2.60;99.90
20370;DHT22;10344;47.592;9.600;2022-12-08T06:11:37;2.60;99.90
20370;DHT22;10344;47.592;9.600;2022-12-08T06:14:09;2.50;99.90
20370;DHT22;10344;47.592;9.600;2022-12-08T06:16:36;2.50;99.90
20370;DHT22;10344;47.592;9.600;2022-12-08T06:19:01;2.50;99.90
20370;DHT22;10344;47.592;9.600;2022-12-08T06:21:27;2.50;99.90
20370;DHT22;10344;47.592;9.600;2022-12-08T06:23:53;2.50;99.90
20370;DHT22;10344;47.592;9.600;2022-12-08T06:26:22;2.50;99.90
20370;DHT22;10344;47.592;9.600;2022-12-08T06:28:48;2.50;99.90
20370;DHT22;10344;47.592;9.600;2022-12-08T06:31:21;2.40;99.90
20370;DHT22;10344;47.592;9.600;2022-12-08T06:33:47;2.40;99.90
20370;DHT22;10344;47.592;9.600;2022-12-08T06:36:17;2.40;99.90
20370;DHT22;10344;47.592;9.600;2022-12-08T06:38:45;2.40;99.90
20370;DHT22;10344;47.592;9.600;2022-12-08T06:41:11;2.50;99.90
20370;DHT22;10344;47.592;9.600;2022-12-08T06:43:37;2.50;99.90
20370;DHT22;10344;47.592;9.600;2022-12-08T06:46:06;2.40;99.90
20370;DHT22;10344;47.592;9.600;2022-12-08T06:48:32;2.40;99.90
20370;DHT22;10344;47.592;9.600;2022-12-08T06:51:11;2.30;99.90
20370;DHT22;10344;47.592;9.600;2022-12-08T06:53:40;2.40;99.90
20370;DHT22;10344;47.592;9.600;2022-12-08T06:56:07;2.40;99.90
20370;DHT22;10344;47.592;9.600;2022-12-08T06:58:34;2.50;99.90
20370;DHT22;10344;47.592;9.600;2022-12-08T07:01:08;2.40;99.90
20370;DHT22;10344;47.592;9.600;2022-12-08T07:03:35;2.40;99.90
20370;DHT22;10344;47.592;9.600;2022-12-08T07:06:05;2.40;99.90
20370;DHT22;10344;47.592;9.600;2022-12-08T07:08:31;2.40;99.90
20370;DHT22;10344;47.592;9.600;2022-12-08T07:10:57;2.40;99.90
20370;DHT22;10344;47.592;9.600;2022-12-08T07:13:23;2.50;99.90
20370;DHT22;10344;47.592;9.600;2022-12-08T07:15:48;2.50;99.90
20370;DHT22;10344;47.592;9.600;2022-12-08T07:18:14;2.50;99.90
20370;DHT22;10344;47.592;9.600;2022-12-08T07:20:39;2.50;99.90
20370;DHT22;10344;47.592;9.600;2022-12-08T07:23:05;2.50;99.90
20370;DHT22;10344;47.592;9.600;2022-12-08T07:25:31;2.50;99.90
20370;DHT22;10344;47.592;9.600;2022-12-08T07:27:56;2.40;99.90
20370;DHT22;10344;47.592;9.600;2022-12-08T07:30:22;2.50;99.90
20370;DHT22;10344;47.592;9.600;2022-12-08T07:32:47;2.50;99.90
20370;DHT22;10344;47.592;9.600;2022-12-08T07:35:13;2.50;99.90
20370;DHT22;10344;47.592;9.600;2022-12-08T07:37:38;2.50;99.90
20370;DHT22;10344;47.592;9.600;2022-12-08T07:40:06;2.50;99.90
20370;DHT22;10344;47.592;9.600;2022-12-08T07:42:32;2.60;99.90
20370;DHT22;10344;47.592;9.600;2022-12-08T07:44:58;2.60;99.90
20370;DHT22;10344;47.592;9.600;2022-12-08T07:47:23;2.50;99.90
20370;DHT22;10344;47.592;9.600;2022-12-08T07:49:49;2.50;99.90
20370;DHT22;10344;47.592;9.600;2022-12-08T07:52:15;2.50;99.90
20370;DHT22;10344;47.592;9.600;2022-12-08T07:54:40;2.50;99.90
20370;DHT22;10344;47.592;9.600;2022-12-08T07:57:08;2.50;99.90
20370;DHT22;10344;47.592;9.600;2022-12-08T07:59:34;2.50;99.90
20370;DHT22;10344;47.592;9.600;2022-12-08T08:02:02;2.60;99.90
20370;DHT22;10344;47.592;9.600;2022-12-08T08:04:27;2.60;99.90
20370;DHT22;10344;47.592;9.600;2022-12-08T08:06:55;2.60;99.90
20370;DHT22;10344;47.592;9.600;2022-12-08T08:09:21;2.70;99.90
20370;DHT22;10344;47.592;9.600;2022-12-08T08:11:49;2.80;99.90
20370;DHT22;10344;47.592;9.600;2022-12-08T08:14:14;2.80;99.90
20370;DHT22;10344;47.592;9.600;2022-12-08T08:16:40;2.80;99.90
20370;DHT22;10344;47.592;9.600;2022-12-08T08:19:11;2.80;99.90
20370;DHT22;10344;47.592;9.600;2022-12-08T08:21:38;2.80;99.90
20370;DHT22;10344;47.592;9.600;2022-12-08T08:24:06;2.80;99.90
20370;DHT22;10344;47.592;9.600;2022-12-08T08:26:32;2.80;99.90
20370;DHT22;10344;47.592;9.600;2022-12-08T08:28:58;2.80;99.90
20370;DHT22;10344;47.592;9.600;2022-12-08T08:31:26;3.00;99.90
20370;DHT22;10344;47.592;9.600;2022-12-08T08:33:52;3.00;99.90
20370;DHT22;10344;47.592;9.600;2022-12-08T08:36:18;3.00;99.90
20370;DHT22;10344;47.592;9.600;2022-12-08T08:38:44;3.00;99.90
20370;DHT22;10344;47.592;9.600;2022-12-08T08:41:10;3.00;99.90
20370;DHT22;10344;47.592;9.600;2022-12-08T08:43:36;3.10;99.90
20370;DHT22;10344;47.592;9.600;2022-12-08T08:46:03;3.10;99.90
20370;DHT22;10344;47.592;9.600;2022-12-08T08:48:30;3.10;99.90
20370;DHT22;10344;47.592;9.600;2022-12-08T08:50:57;3.10;99.90
20370;DHT22;10344;47.592;9.600;2022-12-08T08:53:22;3.10;99.90
20370;DHT22;10344;47.592;9.600;2022-12-08T08:55:49;3.10;99.90
20370;DHT22;10344;47.592;9.600;2022-12-08T08:58:15;3.10;99.90
20370;DHT22;10344;47.592;9.600;2022-12-08T09:00:41;3.20;99.90
20370;DHT22;10344;47.592;9.600;2022-12-08T09:03:07;3.10;99.90
20370;DHT22;10344;47.592;9.600;2022-12-08T09:08:07;3.20;99.90
20370;DHT22;10344;47.592;9.600;2022-12-08T09:10:33;3.20;99.90
20370;DHT22;10344;47.592;9.600;2022-12-08T09:12:59;3.20;99.90
20370;DHT22;10344;47.592;9.600;2022-12-08T09:15:27;3.30;99.90
20370;DHT22;10344;47.592;9.600;2022-12-08T09:17:52;3.30;99.90
20370;DHT22;10344;47.592;9.600;2022-12-08T09:20:19;3.30;99.90
20370;DHT22;10344;47.592;9.600;2022-12-08T09:22:45;3.40;99.90
20370;DHT22;10344;47.592;9.600;2022-12-08T09:25:11;3.50;99.90
20370;DHT22;10344;47.592;9.600;2022-12-08T09:27:36;3.50;99.90
20370;DHT22;10344;47.592;9.600;2022-12-08T09:30:02;3.60;99.90
20370;DHT22;10344;47.592;9.600;2022-12-08T09:32:28;3.60;99.90
20370;DHT22;10344;47.592;9.600;2022-12-08T09:34:54;3.60;99.90
20370;DHT22;10344;47.592;9.600;2022-12-08T09:37:19;3.60;99.90
20370;DHT22;10344;47.592;9.600;2022-12-08T09:39:45;3.70;99.90
20370;DHT22;10344;47.592;9.600;2022-12-08T09:42:11;3.70;99.90
20370;DHT22;10344;47.592;9.600;2022-12-08T09:44:54;3.80;99.90
20370;DHT22;10344;47.592;9.600;2022-12-08T09:47:35;3.80;99.90
20370;DHT22;10344;47.592;9.600;2022-12-08T09:50:15;3.90;99.90
20370;DHT22;10344;47.592;9.600;2022-12-08T09:56:25;4.40;99.90
20370;DHT22;10344;47.592;9.600;2022-12-08T09:59:33;4.70;99.90
20370;DHT22;10344;47.592;9.600;2022-12-08T10:02:05;4.70;99.90
20370;DHT22;10344;47.592;9.600;2022-12-08T10:04:36;4.70;99.90
20370;DHT22;10344;47.592;9.600;2022-12-08T10:07:37;4.60;99.90
20370;DHT22;10344;47.592;9.600;2022-12-08T10:10:28;4.70;99.90
20370;DHT22;10344;47.592;9.600;2022-12-08T10:13:16;4.60;99.90
20370;DHT22;10344;47.592;9.600;2022-12-08T10:18:26;4.60;99.90
20370;DHT22;10344;47.592;9.600;2022-12-08T10:27:05;4.70;99.90
20370;DHT22;10344;47.592;9.600;2022-12-08T10:29:35;4.90;99.90
20370;DHT22;10344;47.592;9.600;2022-12-08T10:32:13;5.20;99.90
20370;DHT22;10344;47.592;9.600;2022-12-08T10:35:09;5.50;99.90
20370;DHT22;10344;47.592;9.600;2022-12-08T10:37:40;5.70;99.90
20370;DHT22;10344;47.592;9.600;2022-12-08T11:01:38;7.00;99.90
20370;DHT22;10344;47.592;9.600;2022-12-08T11:06:53;6.60;99.90
20370;DHT22;10344;47.592;9.600;2022-12-08T11:09:36;6.30;99.90
20370;DHT22;10344;47.592;9.600;2022-12-08T11:12:14;6.30;99.90
20370;DHT22;10344;47.592;9.600;2022-12-08T11:14:48;6.40;99.90
20370;DHT22;10344;47.592;9.600;2022-12-08T11:17:25;6.30;99.90
20370;DHT22;10344;47.592;9.600;2022-12-08T11:20:17;6.40;99.90
20370;DHT22;10344;47.592;9.600;2022-12-08T11:22:57;6.50;99.90
20370;DHT22;10344;47.592;9.600;2022-12-08T11:25:29;6.40;99.90
20370;DHT22;10344;47.592;9.600;2022-12-08T11:28:06;6.40;99.90
20370;DHT22;10344;47.592;9.600;2022-12-08T11:30:42;6.40;99.90
20370;DHT22;10344;47.592;9.600;2022-12-08T11:33:27;6.20;99.90
20370;DHT22;10344;47.592;9.600;2022-12-08T11:36:07;6.30;99.90
20370;DHT22;10344;47.592;9.600;2022-12-08T11:38:43;6.20;99.90
20370;DHT22;10344;47.592;9.600;2022-12-08T11:41:48;6.10;99.90
20370;DHT22;10344;47.592;9.600;2022-12-08T11:47:20;6.20;99.90
20370;DHT22;10344;47.592;9.600;2022-12-08T11:49:54;6.20;99.90
20370;DHT22;10344;47.592;9.600;2022-12-08T11:52:42;6.30;99.90
20370;DHT22;10344;47.592;9.600;2022-12-08T11:55:29;6.30;99.90
20370;DHT22;10344;47.592;9.600;2022-12-08T11:58:23;6.60;99.90
20370;DHT22;10344;47.592;9.600;2022-12-08T12:01:32;6.60;99.90
20370;DHT22;10344;47.592;9.600;2022-12-08T12:04:23;6.70;99.90
20370;DHT22;10344;47.592;9.600;2022-12-08T12:10:26;6.70;99.90
20370;DHT22;10344;47.592;9.600;2022-12-08T12:21:09;6.50;99.90
20370;DHT22;10344;47.592;9.600;2022-12-08T12:28:11;6.70;99.90
20370;DHT22;10344;47.592;9.600;2022-12-08T12:36:49;6.70;99.90
20370;DHT22;10344;47.592;9.600;2022-12-08T12:40:11;6.60;99.90
20370;DHT22;10344;47.592;9.600;2022-12-08T12:43:23;6.50;99.90
20370;DHT22;10344;47.592;9.600;2022-12-08T12:48:51;6.40;99.90
20370;DHT22;10344;47.592;9.600;2022-12-08T12:51:44;6.30;99.90
20370;DHT22;10344;47.592;9.600;2022-12-08T13:00:36;6.60;99.90
20370;DHT22;10344;47.592;9.600;2022-12-08T13:06:00;6.70;99.90
20370;DHT22;10344;47.592;9.600;2022-12-08T13:08:29;6.60;99.90
20370;DHT22;10344;47.592;9.600;2022-12-08T13:11:11;6.50;99.90
20370;DHT22;10344;47.592;9.600;2022-12-08T13:14:02;6.50;99.90
20370;DHT22;10344;47.592;9.600;2022-12-08T14:03:25;5.90;99.90
20370;DHT22;10344;47.592;9.600;2022-12-08T14:05:51;5.70;99.90
20370;DHT22;10344;47.592;9.600;2022-12-08T14:08:32;5.60;99.90
20370;DHT22;10344;47.592;9.600;2022-12-08T14:11:03;5.50;99.90
20370;DHT22;10344;47.592;9.600;2022-12-08T14:13:35;5.40;99.90
20370;DHT22;10344;47.592;9.600;2022-12-08T14:16:01;5.40;99.90
20370;DHT22;10344;47.592;9.600;2022-12-08T14:18:29;5.40;99.90
20370;DHT22;10344;47.592;9.600;2022-12-08T14:21:08;5.30;99.90
20370;DHT22;10344;47.592;9.600;2022-12-08T14:23:52;5.30;99.90
20370;DHT22;10344;47.592;9.600;2022-12-08T14:26:19;5.30;99.90
20370;DHT22;10344;47.592;9.600;2022-12-08T14:28:54;5.30;99.90
20370;DHT22;10344;47.592;9.600;2022-12-08T14:39:46;5.10;99.90
20370;DHT22;10344;47.592;9.600;2022-12-08T14:42:24;5.00;99.90
20370;DHT22;10344;47.592;9.600;2022-12-08T14:45:02;5.00;99.90
20370;DHT22;10344;47.592;9.600;2022-12-08T14:47:37;4.90;99.90
20370;DHT22;10344;47.592;9.600;2022-12-08T15:01:27;4.80;99.90
20370;DHT22;10344;47.592;9.600;2022-12-08T15:15:26;4.50;99.90
20370;DHT22;10344;47.592;9.600;2022-12-08T15:18:12;4.40;99.90
20370;DHT22;10344;47.592;9.600;2022-12-08T15:20:46;4.40;99.90
20370;DHT22;10344;47.592;9.600;2022-12-08T15:23:31;4.20;99.90
20370;DHT22;10344;47.592;9.600;2022-12-08T15:26:04;4.10;99.90
20370;DHT22;10344;47.592;9.600;2022-12-08T15:28:35;4.10;99.90
20370;DHT22;10344;47.592;9.600;2022-12-08T15:31:03;3.90;99.90
20370;DHT22;10344;47.592;9.600;2022-12-08T15:33:36;3.80;99.90
20370;DHT22;10344;47.592;9.600;2022-12-08T15:36:04;3.70;99.90
20370;DHT22;10344;47.592;9.600;2022-12-08T15:38:33;3.70;99.90
20370;DHT22;10344;47.592;9.600;2022-12-08T15:41:02;3.70;99.90
20370;DHT22;10344;47.592;9.600;2022-12-08T15:43:33;3.70;99.90
20370;DHT22;10344;47.592;9.600;2022-12-08T15:46:00;3.60;99.90
20370;DHT22;10344;47.592;9.600;2022-12-08T15:48:28;3.50;99.90
20370;DHT22;10344;47.592;9.600;2022-12-08T15:50:56;3.50;99.90
20370;DHT22;10344;47.592;9.600;2022-12-08T15:53:23;3.50;99.90
20370;DHT22;10344;47.592;9.600;2022-12-08T15:55:51;3.50;99.90
20370;DHT22;10344;47.592;9.600;2022-12-08T15:58:25;3.40;99.90
20370;DHT22;10344;47.592;9.600;2022-12-08T16:00:52;3.40;99.90
20370;DHT22;10344;47.592;9.600;2022-12-08T16:03:23;3.30;99.90
20370;DHT22;10344;47.592;9.600;2022-12-08T16:08:25;3.30;99.90
20370;DHT22;10344;47.592;9.600;2022-12-08T16:10:56;3.30;99.90
20370;DHT22;10344;47.592;9.600;2022-12-08T16:13:43;3.20;99.90
20370;DHT22;10344;47.592;9.600;2022-12-08T16:16:17;3.20;99.90
20370;DHT22;10344;47.592;9.600;2022-12-08T16:18:47;3.20;99.90
20370;DHT22;10344;47.592;9.600;2022-12-08T16:21:41;3.10;99.90
20370;DHT22;10344;47.592;9.600;2022-12-08T16:24:07;3.10;99.90
20370;DHT22;10344;47.592;9.600;2022-12-08T16:26:32;3.00;99.90
20370;DHT22;10344;47.592;9.600;2022-12-08T16:28:58;2.90;99.90
20370;DHT22;10344;47.592;9.600;2022-12-08T16:31:24;2.80;99.90
20370;DHT22;10344;47.592;9.600;2022-12-08T16:33:49;2.80;99.90
20370;DHT22;10344;47.592;9.600;2022-12-08T16:36:15;2.80;99.90
20370;DHT22;10344;47.592;9.600;2022-12-08T16:38:43;2.90;99.90
20370;DHT22;10344;47.592;9.600;2022-12-08T16:41:17;2.90;99.90
20370;DHT22;10344;47.592;9.600;2022-12-08T16:44:04;2.80;99.90
20370;DHT22;10344;47.592;9.600;2022-12-08T16:46:32;2.80;99.90
20370;DHT22;10344;47.592;9.600;2022-12-08T16:49:02;2.80;99.90
20370;DHT22;10344;47.592;9.600;2022-12-08T16:51:28;2.80;99.90
20370;DHT22;10344;47.592;9.600;2022-12-08T16:53:54;2.80;99.90
20370;DHT22;10344;47.592;9.600;2022-12-08T16:56:21;2.80;99.90
20370;DHT22;10344;47.592;9.600;2022-12-08T16:58:47;2.90;99.90
20370;DHT22;10344;47.592;9.600;2022-12-08T17:01:17;3.00;99.90
20370;DHT22;10344;47.592;9.600;2022-12-08T17:03:43;3.10;99.90
20370;DHT22;10344;47.592;9.600;2022-12-08T17:06:15;3.10;99.90
20370;DHT22;10344;47.592;9.600;2022-12-08T17:08:42;3.20;99.90
20370;DHT22;10344;47.592;9.600;2022-12-08T17:11:08;3.20;99.90
20370;DHT22;10344;47.592;9.600;2022-12-08T17:13:36;3.20;99.90
20370;DHT22;10344;47.592;9.600;2022-12-08T17:16:10;3.30;99.90
20370;DHT22;10344;47.592;9.600;2022-12-08T17:18:39;3.40;99.90
20370;DHT22;10344;47.592;9.600;2022-12-08T17:21:12;3.50;99.90
20370;DHT22;10344;47.592;9.600;2022-12-08T17:23:39;3.30;99.90
20370;DHT22;10344;47.592;9.600;2022-12-08T17:26:06;3.30;99.90
20370;DHT22;10344;47.592;9.600;2022-12-08T17:28:31;3.30;99.90
20370;DHT22;10344;47.592;9.600;2022-12-08T17:30:57;3.10;99.90
20370;DHT22;10344;47.592;9.600;2022-12-08T17:33:24;3.00;99.90
20370;DHT22;10344;47.592;9.600;2022-12-08T17:35:53;3.00;99.90
20370;DHT22;10344;47.592;9.600;2022-12-08T17:38:20;2.90;99.90
20370;DHT22;10344;47.592;9.600;2022-12-08T17:40:46;2.80;99.90
20370;DHT22;10344;47.592;9.600;2022-12-08T17:43:14;2.80;99.90
20370;DHT22;10344;47.592;9.600;2022-12-08T17:45:45;2.70;99.90
20370;DHT22;10344;47.592;9.600;2022-12-08T18:03:43;2.60;99.90
20370;DHT22;10344;47.592;9.600;2022-12-08T18:06:11;2.50;99.90
20370;DHT22;10344;47.592;9.600;2022-12-08T18:08:37;2.50;99.90
20370;DHT22;10344;47.592;9.600;2022-12-08T18:11:03;2.40;99.90
20370;DHT22;10344;47.592;9.600;2022-12-08T18:13:29;2.40;99.90
20370;DHT22;10344;47.592;9.600;2022-12-08T18:15:55;2.40;99.90
20370;DHT22;10344;47.592;9.600;2022-12-08T18:18:23;2.40;99.90
20370;DHT22;10344;47.592;9.600;2022-12-08T18:20:49;2.30;99.90
20370;DHT22;10344;47.592;9.600;2022-12-08T18:23:16;2.40;99.90
20370;DHT22;10344;47.592;9.600;2022-12-08T18:25:42;2.40;99.90
20370;DHT22;10344;47.592;9.600;2022-12-08T18:28:08;2.40;99.90
20370;DHT22;10344;47.592;9.600;2022-12-08T18:30:35;2.30;99.90
20370;DHT22;10344;47.592;9.600;2022-12-08T18:33:05;2.20;99.90
20370;DHT22;10344;47.592;9.600;2022-12-08T18:35:31;2.10;99.90
20370;DHT22;10344;47.592;9.600;2022-12-08T18:37:57;2.10;99.90
20370;DHT22;10344;47.592;9.600;2022-12-08T18:40:25;2.10;99.90
20370;DHT22;10344;47.592;9.600;2022-12-08T18:42:50;2.00;99.90
20370;DHT22;10344;47.592;9.600;2022-12-08T18:45:16;2.00;99.90
20370;DHT22;10344;47.592;9.600;2022-12-08T18:47:47;2.10;99.90
20370;DHT22;10344;47.592;9.600;2022-12-08T18:50:13;2.00;99.90
20370;DHT22;10344;47.592;9.600;2022-12-08T18:52:39;2.10;99.90
20370;DHT22;10344;47.592;9.600;2022-12-08T18:55:05;2.00;99.90
20370;DHT22;10344;47.592;9.600;2022-12-08T18:57:33;2.00;99.90
20370;DHT22;10344;47.592;9.600;2022-12-08T18:59:58;1.90;99.90
20370;DHT22;10344;47.592;9.600;2022-12-08T19:02:26;1.90;99.90
20370;DHT22;10344;47.592;9.600;2022-12-08T19:04:54;1.90;99.90
20370;DHT22;10344;47.592;9.600;2022-12-08T19:07:20;2.00;99.90
20370;DHT22;10344;47.592;9.600;2022-12-08T19:09:46;2.00;99.90
20370;DHT22;10344;47.592;9.600;2022-12-08T19:12:11;2.00;99.90
20370;DHT22;10344;47.592;9.600;2022-12-08T19:14:38;2.10;99.90
20370;DHT22;10344;47.592;9.600;2022-12-08T19:17:04;2.10;99.90
20370;DHT22;10344;47.592;9.600;2022-12-08T19:19:30;2.20;99.90
20370;DHT22;10344;47.592;9.600;2022-12-08T19:21:56;2.20;99.90
20370;DHT22;10344;47.592;9.600;2022-12-08T19:24:23;2.20;99.90
20370;DHT22;10344;47.592;9.600;2022-12-08T19:26:50;2.20;99.90
20370;DHT22;10344;47.592;9.600;2022-12-08T19:29:19;2.20;99.90
20370;DHT22;10344;47.592;9.600;2022-12-08T19:31:45;2.40;99.90